Time;durP1;ratioP1;P1;durP2;ratioP2;P2;SDS_P1;SDS_P2;PMS_P1;PMS_P2;Temp;Humidity;BMP_temperature;BMP_pressure;BME280_temperature;BME280_humidity;BME280_pressure;Samples;Min_cycle;Max_cycle;Signal;HPM_P1;HPM_P2
2023/12/21 00:00:52;;;;;;;3.73;0.77;;;;;;;;;;5014651;28;20512;-81
2023/12/21 00:03:18;;;;;;;2.33;0.40;;;;;;;;;;5013761;28;20220;-82
2023/12/21 00:05:44;;;;;;;3.47;0.60;;;;;;;;;;5013926;28;20439;-81
2023/12/21 00:08:10;;;;;;;2.93;0.50;;;;;;;;;;5014798;28;20658;-83
2023/12/21 00:10:36;;;;;;;1.87;0.50;;;;;;;;;;5015093;28;20459;-83
2023/12/21 00:13:02;;;;;;;2.70;0.40;;;;;;;;;;5015051;28;20179;-80
2023/12/21 00:15:27;;;;;;;2.00;0.30;;;;;;;;;;5014996;28;20415;-80
2023/12/21 00:17:53;;;;;;;3.23;0.40;;;;;;;;;;5014933;28;20421;-82
2023/12/21 00:20:20;;;;;;;4.60;0.50;;;;;;;;;;5013769;28;20420;-80
2023/12/21 00:22:46;;;;;;;6.37;0.50;;;;;;;;;;5014436;28;20211;-86
2023/12/21 00:25:12;;;;;;;5.47;2.40;;;;;;;;;;5014684;28;20413;-82
2023/12/21 00:27:38;;;;;;;3.57;0.50;;;;;;;;;;5014626;28;20508;-83
2023/12/21 00:30:05;;;;;;;3.60;0.87;;;;;;;;;;5014600;28;20964;-83
2023/12/21 00:32:30;;;;;;;7.47;0.70;;;;;;;;;;5014699;28;20817;-83
2023/12/21 00:34:56;;;;;;;8.13;1.60;;;;;;;;;;5014259;28;20512;-82
2023/12/21 00:37:22;;;;;;;3.77;0.97;;;;;;;;;;5013884;28;20481;-82
2023/12/21 00:39:48;;;;;;;6.83;1.10;;;;;;;;;;4997066;28;20643;-83
2023/12/21 00:42:14;;;;;;;8.10;0.30;;;;;;;;;;5013783;28;20423;-81
2023/12/21 00:44:40;;;;;;;8.67;0.90;;;;;;;;;;5013188;28;20506;-83
2023/12/21 00:47:06;;;;;;;6.90;1.10;;;;;;;;;;5014306;28;20566;-83
2023/12/21 00:49:32;;;;;;;9.00;1.03;;;;;;;;;;5014186;28;20416;-81
2023/12/21 00:51:58;;;;;;;15.23;2.60;;;;;;;;;;5013705;28;20191;-81
2023/12/21 00:54:24;;;;;;;14.17;2.00;;;;;;;;;;4973279;28;20447;-83
2023/12/21 00:56:50;;;;;;;9.43;0.93;;;;;;;;;;5014212;28;20429;-81
2023/12/21 00:59:15;;;;;;;8.57;1.07;;;;;;;;;;4996537;28;20442;-81
2023/12/21 01:01:41;;;;;;;11.90;0.60;;;;;;;;;;5014128;28;20448;-81
2023/12/21 01:04:07;;;;;;;9.83;0.87;;;;;;;;;;5014040;28;20413;-82
2023/12/21 01:06:36;;;;;;;8.10;1.33;;;;;;;;;;5013121;28;20932;-82
2023/12/21 01:09:03;;;;;;;13.93;1.30;;;;;;;;;;5013914;28;20449;-82
2023/12/21 01:11:29;;;;;;;17.97;1.47;;;;;;;;;;5013897;28;20409;-82
2023/12/21 01:13:54;;;;;;;12.03;1.20;;;;;;;;;;5013849;28;20428;-82
2023/12/21 01:16:20;;;;;;;9.00;0.57;;;;;;;;;;5012697;28;20413;-82
2023/12/21 01:18:46;;;;;;;9.63;0.80;;;;;;;;;;5013913;28;20178;-81
2023/12/21 01:21:12;;;;;;;6.13;1.00;;;;;;;;;;5013350;28;20989;-81
2023/12/21 01:23:38;;;;;;;5.90;0.50;;;;;;;;;;5013562;28;20425;-81
2023/12/21 01:26:04;;;;;;;7.27;1.03;;;;;;;;;;5013559;28;20410;-82
2023/12/21 01:28:30;;;;;;;7.13;0.57;;;;;;;;;;5013480;28;20479;-81
2023/12/21 01:30:56;;;;;;;8.63;0.50;;;;;;;;;;5013575;28;20411;-82
2023/12/21 01:33:22;;;;;;;4.57;0.40;;;;;;;;;;5013245;28;20534;-83
2023/12/21 01:35:48;;;;;;;4.20;0.37;;;;;;;;;;5013240;28;20417;-81
2023/12/21 01:38:14;;;;;;;4.07;0.30;;;;;;;;;;5013238;28;20181;-81
2023/12/21 01:40:40;;;;;;;7.80;0.40;;;;;;;;;;5012221;28;20482;-81
2023/12/21 01:43:06;;;;;;;1.70;0.30;;;;;;;;;;5013531;28;20423;-79
2023/12/21 01:45:32;;;;;;;7.20;1.00;;;;;;;;;;5013255;28;20418;-80
2023/12/21 01:47:58;;;;;;;5.30;0.60;;;;;;;;;;5012845;28;20617;-81
2023/12/21 01:50:23;;;;;;;6.47;0.93;;;;;;;;;;5011134;28;20167;-81
2023/12/21 01:52:50;;;;;;;7.27;0.90;;;;;;;;;;5010170;28;20415;-80
2023/12/21 01:55:16;;;;;;;4.33;1.03;;;;;;;;;;5012125;28;20887;-81
2023/12/21 01:57:43;;;;;;;5.27;0.50;;;;;;;;;;5013267;28;20500;-83
2023/12/21 02:00:09;;;;;;;6.93;0.60;;;;;;;;;;5013280;28;20455;-89
2023/12/21 02:02:35;;;;;;;5.00;0.40;;;;;;;;;;5012154;28;20806;-88
2023/12/21 02:05:01;;;;;;;6.10;0.73;;;;;;;;;;5013268;28;20466;-84
2023/12/21 02:07:26;;;;;;;6.47;0.30;;;;;;;;;;5013295;28;20206;-88
2023/12/21 02:09:52;;;;;;;5.80;0.60;;;;;;;;;;5013993;28;20168;-90
2023/12/21 02:12:18;;;;;;;6.10;0.77;;;;;;;;;;5013559;28;20421;-85
2023/12/21 02:14:44;;;;;;;3.63;0.20;;;;;;;;;;5012341;28;20615;-89
2023/12/21 02:17:12;;;;;;;4.57;0.20;;;;;;;;;;5013448;28;20195;-87
2023/12/21 02:19:39;;;;;;;2.40;0.20;;;;;;;;;;5012862;28;20182;-89
2023/12/21 02:22:05;;;;;;;1.80;0.23;;;;;;;;;;5011392;28;20442;-88
2023/12/21 02:24:31;;;;;;;2.27;0.20;;;;;;;;;;5012904;28;20420;-85
2023/12/21 02:26:57;;;;;;;3.80;0.30;;;;;;;;;;5012701;28;20958;-84
2023/12/21 02:29:23;;;;;;;1.97;0.30;;;;;;;;;;5012641;28;20425;-85
2023/12/21 02:31:49;;;;;;;3.07;0.20;;;;;;;;;;5013147;28;20428;-84
2023/12/21 02:34:15;;;;;;;4.23;0.57;;;;;;;;;;5011252;28;20531;-84
2023/12/21 02:36:41;;;;;;;1.27;0.23;;;;;;;;;;5012403;28;20496;-84
2023/12/21 02:39:07;;;;;;;4.30;0.40;;;;;;;;;;5012624;28;20449;-85
2023/12/21 02:41:33;;;;;;;3.20;0.43;;;;;;;;;;5012515;28;20490;-85
2023/12/21 02:43:59;;;;;;;6.03;0.50;;;;;;;;;;5012846;28;20922;-86
2023/12/21 02:46:27;;;;;;;6.23;0.60;;;;;;;;;;5012782;28;20425;-85
2023/12/21 02:48:53;;;;;;;5.77;0.53;;;;;;;;;;5012700;28;20791;-85
2023/12/21 02:51:19;;;;;;;10.50;0.70;;;;;;;;;;5012218;28;20492;-84
2023/12/21 02:53:45;;;;;;;4.93;0.63;;;;;;;;;;5012704;28;20442;-84
2023/12/21 02:56:11;;;;;;;9.83;1.23;;;;;;;;;;5011397;28;20938;-83
2023/12/21 02:58:37;;;;;;;11.80;1.90;;;;;;;;;;5012685;28;20244;-86
2023/12/21 03:01:03;;;;;;;6.50;1.00;;;;;;;;;;5012472;28;20411;-85
2023/12/21 03:03:29;;;;;;;9.40;1.80;;;;;;;;;;5012375;28;20415;-84
2023/12/21 03:05:58;;;;;;;24.77;2.10;;;;;;;;;;5014697;28;20423;-84
2023/12/21 03:08:24;;;;;;;6.90;0.80;;;;;;;;;;5016250;28;20994;-84
2023/12/21 03:10:50;;;;;;;7.37;1.73;;;;;;;;;;5016327;28;20413;-85
2023/12/21 03:13:16;;;;;;;8.40;1.17;;;;;;;;;;5016073;28;20424;-84
2023/12/21 03:15:42;;;;;;;13.27;2.13;;;;;;;;;;5014868;28;20508;-84
2023/12/21 03:18:08;;;;;;;7.27;0.90;;;;;;;;;;5016170;28;20625;-85
2023/12/21 03:20:34;;;;;;;10.90;2.43;;;;;;;;;;5015981;28;20432;-84
2023/12/21 03:23:01;;;;;;;8.37;0.80;;;;;;;;;;5015626;28;20428;-85
2023/12/21 03:25:27;;;;;;;14.13;1.63;;;;;;;;;;5015935;28;20402;-85
2023/12/21 03:27:53;;;;;;;7.80;1.00;;;;;;;;;;5014578;28;20889;-84
2023/12/21 03:30:18;;;;;;;13.37;1.77;;;;;;;;;;5015979;28;20409;-84
2023/12/21 03:32:44;;;;;;;7.10;1.00;;;;;;;;;;5015849;28;20830;-83
2023/12/21 03:35:11;;;;;;;7.30;1.10;;;;;;;;;;5015718;28;20542;-84
2023/12/21 03:37:38;;;;;;;14.83;1.40;;;;;;;;;;5015419;28;20424;-83
2023/12/21 03:40:04;;;;;;;7.67;1.73;;;;;;;;;;5015857;28;20428;-84
2023/12/21 03:42:29;;;;;;;11.10;1.17;;;;;;;;;;5015731;28;20886;-83
2023/12/21 03:44:55;;;;;;;6.37;0.77;;;;;;;;;;5015688;28;20410;-84
2023/12/21 03:47:22;;;;;;;5.50;1.00;;;;;;;;;;5015418;28;20572;-84
2023/12/21 03:49:47;;;;;;;6.93;0.50;;;;;;;;;;5014421;28;20179;-85
2023/12/21 03:52:14;;;;;;;5.70;0.97;;;;;;;;;;5015135;28;20425;-84
2023/12/21 03:54:40;;;;;;;8.90;0.40;;;;;;;;;;5015455;28;20812;-85
2023/12/21 03:57:06;;;;;;;6.90;0.83;;;;;;;;;;5015429;28;20406;-86
2023/12/21 03:59:34;;;;;;;3.43;0.30;;;;;;;;;;5015355;28;20425;-86
2023/12/21 04:02:00;;;;;;;6.40;0.97;;;;;;;;;;5014110;28;20206;-86
2023/12/21 04:04:26;;;;;;;4.67;0.40;;;;;;;;;;5015285;28;20929;-86
2023/12/21 04:06:52;;;;;;;7.57;0.97;;;;;;;;;;5013703;28;20560;-87
2023/12/21 04:09:18;;;;;;;2.33;0.60;;;;;;;;;;5013999;28;20430;-84
2023/12/21 04:11:44;;;;;;;7.50;1.33;;;;;;;;;;5013904;28;20424;-86
2023/12/21 04:14:09;;;;;;;4.20;1.10;;;;;;;;;;5013806;28;20426;-84
2023/12/21 04:16:37;;;;;;;9.30;0.93;;;;;;;;;;5014220;28;20446;-87
2023/12/21 04:19:03;;;;;;;5.97;0.73;;;;;;;;;;5014999;28;20418;-84
2023/12/21 04:21:30;;;;;;;6.67;0.67;;;;;;;;;;5014689;28;20441;-84
2023/12/21 04:23:55;;;;;;;4.20;0.90;;;;;;;;;;5014976;28;20968;-84
2023/12/21 04:26:22;;;;;;;2.90;0.73;;;;;;;;;;5014978;28;20442;-85
2023/12/21 04:28:49;;;;;;;3.13;0.87;;;;;;;;;;5013525;28;20308;-86
2023/12/21 04:31:18;;;;;;;4.87;0.77;;;;;;;;;;5014858;28;20409;-86
2023/12/21 04:33:45;;;;;;;6.10;1.37;;;;;;;;;;5014627;28;20458;-85
2023/12/21 04:36:11;;;;;;;8.33;1.03;;;;;;;;;;5013272;28;20914;-85
2023/12/21 04:38:38;;;;;;;2.43;0.30;;;;;;;;;;5014660;28;20442;-84
2023/12/21 04:41:04;;;;;;;2.43;0.83;;;;;;;;;;5014644;28;20410;-86
2023/12/21 04:43:30;;;;;;;2.57;0.40;;;;;;;;;;5014545;28;20420;-86
2023/12/21 04:45:55;;;;;;;2.80;0.50;;;;;;;;;;5014523;28;20467;-85
2023/12/21 04:48:21;;;;;;;6.40;0.50;;;;;;;;;;5014460;28;20677;-85
2023/12/21 04:50:47;;;;;;;2.63;0.40;;;;;;;;;;5014090;28;20172;-85
2023/12/21 04:53:13;;;;;;;1.70;0.33;;;;;;;;;;5013674;28;20817;-86
2023/12/21 04:55:42;;;;;;;2.00;0.40;;;;;;;;;;4970227;28;20221;-84
2023/12/21 04:58:08;;;;;;;3.77;0.20;;;;;;;;;;5013480;28;20512;-86
2023/12/21 05:00:34;;;;;;;0.60;0.20;;;;;;;;;;5013340;28;20403;-86
2023/12/21 05:03:00;;;;;;;1.63;0.20;;;;;;;;;;5013667;28;20487;-86
2023/12/21 05:05:26;;;;;;;3.37;0.30;;;;;;;;;;5013646;28;20413;-86
2023/12/21 05:07:53;;;;;;;2.87;0.40;;;;;;;;;;5013957;28;20481;-83
2023/12/21 05:10:19;;;;;;;0.37;0.20;;;;;;;;;;5013978;28;20179;-86
2023/12/21 05:12:45;;;;;;;0.97;0.23;;;;;;;;;;5013985;28;20429;-84
2023/12/21 05:15:10;;;;;;;2.10;0.63;;;;;;;;;;5013821;28;20214;-85
2023/12/21 05:17:37;;;;;;;1.67;0.20;;;;;;;;;;5013722;28;20415;-84
2023/12/21 05:20:03;;;;;;;1.90;0.60;;;;;;;;;;5013866;28;20811;-86
2023/12/21 05:22:29;;;;;;;2.80;0.67;;;;;;;;;;5013515;28;20473;-85
2023/12/21 05:24:55;;;;;;;3.30;0.40;;;;;;;;;;5013685;28;20426;-86
2023/12/21 05:27:21;;;;;;;2.90;1.00;;;;;;;;;;5013327;28;20465;-87
2023/12/21 05:29:47;;;;;;;1.50;0.93;;;;;;;;;;5013636;28;20917;-85
2023/12/21 05:32:13;;;;;;;1.47;0.47;;;;;;;;;;5013653;28;20418;-84
2023/12/21 05:34:39;;;;;;;1.63;0.40;;;;;;;;;;5013239;28;20981;-84
2023/12/21 05:37:05;;;;;;;1.60;0.63;;;;;;;;;;5013141;28;20473;-86
2023/12/21 05:39:30;;;;;;;1.80;0.70;;;;;;;;;;5013324;28;20420;-85
2023/12/21 05:41:57;;;;;;;1.63;0.87;;;;;;;;;;5013294;28;20429;-85
2023/12/21 05:44:23;;;;;;;1.47;0.70;;;;;;;;;;5013360;28;20413;-84
2023/12/21 05:46:49;;;;;;;1.70;0.83;;;;;;;;;;5013246;28;20769;-87
2023/12/21 05:49:15;;;;;;;3.50;1.40;;;;;;;;;;5013253;28;20448;-86
2023/12/21 05:51:41;;;;;;;2.00;1.00;;;;;;;;;;4995162;28;20229;-88
2023/12/21 05:54:06;;;;;;;2.13;0.90;;;;;;;;;;5013204;28;20178;-82
2023/12/21 05:56:35;;;;;;;1.43;0.77;;;;;;;;;;5013154;28;20186;-86
2023/12/21 05:59:01;;;;;;;2.23;0.70;;;;;;;;;;5013131;28;20168;-87
2023/12/21 06:01:27;;;;;;;3.27;0.70;;;;;;;;;;4995222;28;20431;-83
2023/12/21 06:03:53;;;;;;;2.77;1.10;;;;;;;;;;5013058;28;20171;-85
2023/12/21 06:06:19;;;;;;;2.50;0.80;;;;;;;;;;5012634;28;20190;-86
2023/12/21 06:08:45;;;;;;;2.70;0.60;;;;;;;;;;5012802;28;20807;-84
2023/12/21 06:11:11;;;;;;;1.20;0.30;;;;;;;;;;4995311;28;20422;-84
2023/12/21 06:13:37;;;;;;;2.33;0.53;;;;;;;;;;5012789;28;20497;-84
2023/12/21 06:16:03;;;;;;;1.40;0.60;;;;;;;;;;5012646;28;20899;-85
2023/12/21 06:18:29;;;;;;;1.20;0.60;;;;;;;;;;5012851;28;20931;-84
2023/12/21 06:20:55;;;;;;;1.30;0.40;;;;;;;;;;5012430;28;20697;-85
2023/12/21 06:23:21;;;;;;;1.97;0.67;;;;;;;;;;4971322;28;20451;-85
2023/12/21 06:25:47;;;;;;;1.40;0.40;;;;;;;;;;5012657;28;20422;-83
2023/12/21 06:28:13;;;;;;;0.60;0.40;;;;;;;;;;5012969;28;20477;-83
2023/12/21 06:30:39;;;;;;;3.73;0.30;;;;;;;;;;5013177;28;20413;-85
2023/12/21 06:33:05;;;;;;;0.70;0.20;;;;;;;;;;5013246;28;20416;-84
2023/12/21 06:35:30;;;;;;;0.70;0.20;;;;;;;;;;5012742;28;20464;-84
2023/12/21 06:37:57;;;;;;;0.60;0.20;;;;;;;;;;5013252;28;20414;-85
2023/12/21 06:40:23;;;;;;;0.90;0.20;;;;;;;;;;5014887;28;20409;-85
2023/12/21 06:42:49;;;;;;;1.43;0.27;;;;;;;;;;5017140;28;20406;-85
2023/12/21 06:45:15;;;;;;;0.50;0.20;;;;;;;;;;5017214;28;20417;-85
2023/12/21 06:47:41;;;;;;;4.10;0.20;;;;;;;;;;5017021;28;20471;-82
2023/12/21 06:50:07;;;;;;;0.70;0.20;;;;;;;;;;4999184;28;20430;-83
2023/12/21 06:52:33;;;;;;;2.40;0.30;;;;;;;;;;5017088;28;20426;-84
2023/12/21 06:54:59;;;;;;;1.80;0.40;;;;;;;;;;5017099;28;20420;-84
2023/12/21 06:57:25;;;;;;;0.77;0.20;;;;;;;;;;4999378;28;20425;-85
2023/12/21 06:59:51;;;;;;;1.33;0.20;;;;;;;;;;4999506;28;20428;-85
2023/12/21 07:02:17;;;;;;;1.53;0.60;;;;;;;;;;5016536;28;20429;-85
2023/12/21 07:04:43;;;;;;;1.80;0.30;;;;;;;;;;4999220;28;20462;-85
2023/12/21 07:07:09;;;;;;;1.93;0.30;;;;;;;;;;5016363;28;20463;-84
2023/12/21 07:09:35;;;;;;;1.20;0.20;;;;;;;;;;5016737;28;20466;-84
2023/12/21 07:12:01;;;;;;;2.30;0.40;;;;;;;;;;5016652;28;20418;-84
2023/12/21 07:14:27;;;;;;;0.70;0.20;;;;;;;;;;5016604;28;20406;-85
2023/12/21 07:16:53;;;;;;;0.40;0.20;;;;;;;;;;5016618;28;20428;-84
2023/12/21 07:19:19;;;;;;;0.90;0.20;;;;;;;;;;4998905;28;20425;-85
2023/12/21 07:21:45;;;;;;;1.90;0.33;;;;;;;;;;4998632;28;20421;-85
2023/12/21 07:24:11;;;;;;;0.90;0.20;;;;;;;;;;5016444;28;20413;-86
2023/12/21 07:26:37;;;;;;;1.47;0.20;;;;;;;;;;4958974;28;20507;-86
2023/12/21 07:29:03;;;;;;;1.03;0.20;;;;;;;;;;5016406;28;20416;-86
2023/12/21 07:31:29;;;;;;;1.90;0.20;;;;;;;;;;5016160;28;20448;-86
2023/12/21 07:33:56;;;;;;;0.80;0.30;;;;;;;;;;5016099;28;20477;-85
2023/12/21 07:36:25;;;;;;;1.73;0.20;;;;;;;;;;4998280;28;20920;-85
2023/12/21 07:38:51;;;;;;;0.33;0.20;;;;;;;;;;5016129;28;20814;-84
2023/12/21 07:41:17;;;;;;;0.30;0.20;;;;;;;;;;5016091;28;20456;-86
2023/12/21 07:43:44;;;;;;;0.60;0.20;;;;;;;;;;4998357;28;20409;-85
2023/12/21 07:46:45;;;;;;;0.37;0.20;;;;;;;;;;4998381;28;20424;-87
2023/12/21 07:49:13;;;;;;;0.50;0.20;;;;;;;;;;4997361;28;20492;-86
2023/12/21 07:51:39;;;;;;;0.40;0.20;;;;;;;;;;5014134;28;20438;-84
2023/12/21 07:54:14;;;;;;;1.03;0.20;;;;;;;;;;5015425;28;20410;-85
2023/12/21 07:56:40;;;;;;;0.50;0.20;;;;;;;;;;5015482;28;20414;-83
2023/12/21 07:59:07;;;;;;;0.50;0.20;;;;;;;;;;5015827;28;20928;-86
2023/12/21 08:01:33;;;;;;;0.70;0.20;;;;;;;;;;5015914;28;20414;-85
2023/12/21 08:04:02;;;;;;;0.40;0.20;;;;;;;;;;4998001;28;20436;-87
2023/12/21 08:06:28;;;;;;;0.40;0.20;;;;;;;;;;5015325;28;20445;-85
2023/12/21 08:08:54;;;;;;;0.30;0.20;;;;;;;;;;5015900;28;20922;-81
2023/12/21 08:11:23;;;;;;;0.50;0.20;;;;;;;;;;5015661;28;20409;-83
2023/12/21 08:13:50;;;;;;;0.90;0.20;;;;;;;;;;5015591;28;20442;-81
2023/12/21 08:16:17;;;;;;;0.47;0.20;;;;;;;;;;5015547;28;20414;-85
2023/12/21 08:18:44;;;;;;;1.07;0.10;;;;;;;;;;4997891;28;20504;-84
2023/12/21 08:21:10;;;;;;;0.30;0.20;;;;;;;;;;5015199;28;20537;-83
2023/12/21 08:23:36;;;;;;;0.30;0.10;;;;;;;;;;5015380;28;20422;-80
2023/12/21 08:26:03;;;;;;;0.40;0.20;;;;;;;;;;5015307;28;20772;-80
2023/12/21 08:28:30;;;;;;;0.63;0.10;;;;;;;;;;5015121;28;20473;-80
2023/12/21 08:30:56;;;;;;;0.30;0.20;;;;;;;;;;4997651;28;20414;-80
2023/12/21 08:33:22;;;;;;;0.40;0.20;;;;;;;;;;5014940;28;20419;-79
2023/12/21 08:35:48;;;;;;;0.40;0.20;;;;;;;;;;5014921;28;20432;-80
2023/12/21 08:38:14;;;;;;;0.80;0.20;;;;;;;;;;5015029;28;20425;-78
2023/12/21 08:40:40;;;;;;;0.63;0.20;;;;;;;;;;4977506;28;20523;-78
2023/12/21 08:43:06;;;;;;;0.53;0.20;;;;;;;;;;5014053;28;20411;-80
2023/12/21 08:45:32;;;;;;;0.50;0.20;;;;;;;;;;5014948;28;20480;-80
2023/12/21 08:47:58;;;;;;;0.50;0.40;;;;;;;;;;4997178;28;20484;-79
2023/12/21 08:50:24;;;;;;;0.30;0.20;;;;;;;;;;5014589;28;20414;-80
2023/12/21 08:52:50;;;;;;;1.20;0.20;;;;;;;;;;5014908;28;20409;-81
2023/12/21 08:55:16;;;;;;;2.10;0.10;;;;;;;;;;5014802;28;20791;-79
2023/12/21 08:57:42;;;;;;;0.57;0.20;;;;;;;;;;5014816;28;20424;-80
2023/12/21 09:00:12;;;;;;;0.30;0.10;;;;;;;;;;5014695;28;20411;-79
2023/12/21 09:02:38;;;;;;;0.50;0.20;;;;;;;;;;5013153;28;20463;-81
2023/12/21 09:05:05;;;;;;;1.27;0.20;;;;;;;;;;5014190;28;20182;-80
2023/12/21 09:07:31;;;;;;;0.77;0.20;;;;;;;;;;5014544;28;20470;-80
2023/12/21 09:09:57;;;;;;;0.30;0.20;;;;;;;;;;5014563;28;20408;-81
2023/12/21 09:12:23;;;;;;;0.53;0.20;;;;;;;;;;4996978;28;20454;-80
2023/12/21 09:14:49;;;;;;;0.50;0.10;;;;;;;;;;4996832;28;20968;-81
2023/12/21 09:17:14;;;;;;;0.57;0.17;;;;;;;;;;5014404;28;20175;-81
2023/12/21 09:19:41;;;;;;;0.67;0.20;;;;;;;;;;4996446;28;20529;-80
2023/12/21 09:22:08;;;;;;;1.20;0.10;;;;;;;;;;5014278;28;20437;-80
2023/12/21 09:24:34;;;;;;;0.60;0.20;;;;;;;;;;5013616;28;20427;-80
2023/12/21 09:26:59;;;;;;;0.63;0.20;;;;;;;;;;5014214;28;20175;-80
2023/12/21 09:29:25;;;;;;;0.60;0.20;;;;;;;;;;5014161;28;20488;-80
2023/12/21 09:31:51;;;;;;;0.73;0.20;;;;;;;;;;5013619;28;20895;-80
2023/12/21 09:34:18;;;;;;;1.03;0.10;;;;;;;;;;5013374;28;20495;-83
2023/12/21 09:36:44;;;;;;;0.63;0.10;;;;;;;;;;4995512;28;20268;-80
2023/12/21 09:39:12;;;;;;;2.30;0.20;;;;;;;;;;5013483;28;20525;-80
2023/12/21 09:41:38;;;;;;;0.47;0.20;;;;;;;;;;5013322;28;20556;-80
2023/12/21 09:44:04;;;;;;;0.43;0.20;;;;;;;;;;5013289;28;20421;-80
2023/12/21 09:46:37;;;;;;;0.47;0.20;;;;;;;;;;5013292;28;20503;-80
2023/12/21 09:49:04;;;;;;;0.30;0.20;;;;;;;;;;5013244;28;20482;-80
2023/12/21 09:51:31;;;;;;;0.40;0.20;;;;;;;;;;5012964;28;20640;-80
2023/12/21 09:53:57;;;;;;;0.30;0.10;;;;;;;;;;5013159;28;20906;-80
2023/12/21 09:56:23;;;;;;;1.43;0.20;;;;;;;;;;5013171;28;20461;-79
2023/12/21 09:58:49;;;;;;;0.40;0.20;;;;;;;;;;5013098;28;20981;-79
2023/12/21 10:01:15;;;;;;;0.30;0.20;;;;;;;;;;5013116;28;20418;-79
2023/12/21 10:03:44;;;;;;;0.50;0.20;;;;;;;;;;5013117;28;20427;-80
2023/12/21 10:06:10;;;;;;;1.90;0.20;;;;;;;;;;5012709;28;20464;-79
2023/12/21 10:08:36;;;;;;;1.00;0.20;;;;;;;;;;5012906;28;20503;-81
2023/12/21 10:11:03;;;;;;;0.73;0.20;;;;;;;;;;5012989;28;20895;-82
2023/12/21 10:13:29;;;;;;;0.30;0.20;;;;;;;;;;4995565;28;20431;-81
2023/12/21 10:16:03;;;;;;;1.57;0.30;;;;;;;;;;5012687;28;20496;-81
2023/12/21 10:18:29;;;;;;;2.13;0.30;;;;;;;;;;5013446;28;21105;-80
2023/12/21 10:20:56;;;;;;;0.50;0.20;;;;;;;;;;5013205;28;20497;-80
2023/12/21 10:23:22;;;;;;;1.50;0.20;;;;;;;;;;5013340;28;20506;-81
2023/12/21 10:25:48;;;;;;;0.60;0.20;;;;;;;;;;5013327;28;20433;-81
2023/12/21 10:28:14;;;;;;;0.40;0.20;;;;;;;;;;5013227;28;20480;-81
2023/12/21 10:30:40;;;;;;;0.53;0.20;;;;;;;;;;4995628;28;20510;-80
2023/12/21 10:33:08;;;;;;;0.50;0.20;;;;;;;;;;4972469;28;20467;-80
2023/12/21 10:35:36;;;;;;;0.50;0.10;;;;;;;;;;5012712;28;20501;-80
2023/12/21 10:38:01;;;;;;;0.30;0.20;;;;;;;;;;5013216;28;20463;-81
2023/12/21 10:40:28;;;;;;;0.47;0.20;;;;;;;;;;5013252;28;20442;-80
2023/12/21 10:42:56;;;;;;;1.40;0.20;;;;;;;;;;5013177;28;20640;-82
2023/12/21 10:45:22;;;;;;;2.97;0.20;;;;;;;;;;5013227;28;20439;-80
2023/12/21 10:47:49;;;;;;;0.97;0.20;;;;;;;;;;5013087;28;20487;-81
2023/12/21 10:50:16;;;;;;;0.30;0.10;;;;;;;;;;5012826;28;20421;-83
2023/12/21 10:52:44;;;;;;;0.40;0.20;;;;;;;;;;5013184;28;20414;-80
2023/12/21 10:55:14;;;;;;;0.90;0.20;;;;;;;;;;5013020;28;20416;-80
2023/12/21 10:57:41;;;;;;;0.30;0.20;;;;;;;;;;5013103;28;20415;-81
2023/12/21 11:00:12;;;;;;;0.73;0.20;;;;;;;;;;5012201;28;20788;-81
2023/12/21 11:02:38;;;;;;;4.63;0.20;;;;;;;;;;5013126;28;20536;-80
2023/12/21 11:05:04;;;;;;;0.30;0.20;;;;;;;;;;5012747;28;20414;-84
2023/12/21 11:07:31;;;;;;;1.80;0.20;;;;;;;;;;5012901;28;21035;-81
2023/12/21 11:09:57;;;;;;;0.53;0.20;;;;;;;;;;4995313;28;20775;-81
2023/12/21 11:12:23;;;;;;;0.70;0.20;;;;;;;;;;5013074;28;20425;-82
2023/12/21 11:14:49;;;;;;;0.47;0.20;;;;;;;;;;5013073;28;20423;-80
2023/12/21 11:17:16;;;;;;;0.30;0.20;;;;;;;;;;5013184;28;20174;-81
2023/12/21 11:19:43;;;;;;;0.30;0.20;;;;;;;;;;5012909;28;20762;-82
2023/12/21 11:22:09;;;;;;;0.30;0.20;;;;;;;;;;5013083;28;20426;-82
2023/12/21 11:24:35;;;;;;;0.67;0.20;;;;;;;;;;5013178;28;20830;-82
2023/12/21 11:27:01;;;;;;;0.70;0.20;;;;;;;;;;5015768;28;20414;-81
2023/12/21 11:29:28;;;;;;;0.60;0.20;;;;;;;;;;5016758;28;20413;-81
2023/12/21 11:31:55;;;;;;;1.07;0.10;;;;;;;;;;5016608;28;20566;-80
2023/12/21 11:34:24;;;;;;;0.53;0.20;;;;;;;;;;5002932;28;20473;-81
2023/12/21 11:36:58;;;;;;;0.37;0.20;;;;;;;;;;5036250;28;20410;-80
2023/12/21 11:39:25;;;;;;;0.60;0.20;;;;;;;;;;5036330;28;20421;-82
2023/12/21 11:41:58;;;;;;;1.07;0.23;;;;;;;;;;5036266;28;20421;-81
2023/12/21 11:44:24;;;;;;;0.73;0.20;;;;;;;;;;5036271;28;20788;-80
2023/12/21 11:46:56;;;;;;;1.23;0.20;;;;;;;;;;5036023;28;20416;-81
2023/12/21 11:49:25;;;;;;;1.33;0.20;;;;;;;;;;5035718;28;20781;-82
2023/12/21 11:51:51;;;;;;;1.20;0.30;;;;;;;;;;5036030;28;20917;-81
2023/12/21 11:54:18;;;;;;;2.90;0.20;;;;;;;;;;5036089;28;20498;-83
2023/12/21 11:56:44;;;;;;;3.40;0.20;;;;;;;;;;5035865;28;20413;-80
2023/12/21 11:59:10;;;;;;;4.13;0.50;;;;;;;;;;5035898;28;20829;-81
2023/12/21 12:01:37;;;;;;;5.30;1.03;;;;;;;;;;5035809;28;20416;-80
2023/12/21 12:04:06;;;;;;;7.70;0.70;;;;;;;;;;5035511;28;20886;-80
2023/12/21 12:06:33;;;;;;;5.13;0.90;;;;;;;;;;5035106;28;20496;-81
2023/12/21 12:08:59;;;;;;;5.30;0.60;;;;;;;;;;5035298;28;20473;-81
2023/12/21 12:11:25;;;;;;;5.47;0.40;;;;;;;;;;5035263;28;20405;-82
2023/12/21 12:13:51;;;;;;;5.10;0.20;;;;;;;;;;5035381;28;20423;-81
2023/12/21 12:16:17;;;;;;;4.00;0.60;;;;;;;;;;5017520;28;20435;-82
2023/12/21 12:18:43;;;;;;;3.70;0.50;;;;;;;;;;5035123;28;20167;-82
2023/12/21 12:21:10;;;;;;;3.50;0.20;;;;;;;;;;5017253;28;20507;-82
2023/12/21 12:23:36;;;;;;;2.30;0.20;;;;;;;;;;5035174;28;20414;-82
2023/12/21 12:26:02;;;;;;;5.83;0.63;;;;;;;;;;5035115;28;20419;-82
2023/12/21 12:28:28;;;;;;;4.27;0.23;;;;;;;;;;5034991;28;20476;-82
2023/12/21 12:30:55;;;;;;;6.37;0.47;;;;;;;;;;5035234;28;20408;-82
2023/12/21 12:33:21;;;;;;;5.40;0.63;;;;;;;;;;5017351;28;20438;-81
2023/12/21 12:35:50;;;;;;;3.27;0.20;;;;;;;;;;5034961;28;20780;-82
2023/12/21 12:38:16;;;;;;;4.43;1.07;;;;;;;;;;4981809;28;20752;-82
2023/12/21 12:40:42;;;;;;;10.40;0.93;;;;;;;;;;5015417;28;20413;-82
2023/12/21 12:43:08;;;;;;;6.47;0.93;;;;;;;;;;5015367;28;20420;-82
2023/12/21 12:45:34;;;;;;;4.33;0.83;;;;;;;;;;5015314;28;20490;-82
2023/12/21 12:48:02;;;;;;;5.13;0.63;;;;;;;;;;5015200;28;20467;-82
2023/12/21 12:50:28;;;;;;;4.87;1.20;;;;;;;;;;5014921;28;20427;-82
2023/12/21 12:52:54;;;;;;;5.17;0.30;;;;;;;;;;5015431;28;20419;-83
2023/12/21 12:55:21;;;;;;;5.23;0.50;;;;;;;;;;5014630;28;20441;-82
2023/12/21 12:57:49;;;;;;;5.93;0.30;;;;;;;;;;5014981;28;20415;-82
2023/12/21 13:00:18;;;;;;;8.07;1.27;;;;;;;;;;5014910;28;20423;-82
2023/12/21 13:02:44;;;;;;;3.50;0.30;;;;;;;;;;5014963;28;20412;-82
2023/12/21 13:05:11;;;;;;;4.47;0.63;;;;;;;;;;5014559;28;20456;-82
2023/12/21 13:07:39;;;;;;;4.23;0.30;;;;;;;;;;5014389;28;20534;-82
2023/12/21 13:10:05;;;;;;;10.27;1.17;;;;;;;;;;5014784;28;20981;-82
2023/12/21 13:12:31;;;;;;;2.83;0.20;;;;;;;;;;5014829;28;20405;-82
2023/12/21 13:14:58;;;;;;;9.07;0.97;;;;;;;;;;5014747;28;20409;-82
2023/12/21 13:17:24;;;;;;;6.77;0.77;;;;;;;;;;5014738;28;20409;-82
2023/12/21 13:19:49;;;;;;;4.90;0.60;;;;;;;;;;5014323;28;20485;-82
2023/12/21 13:22:15;;;;;;;5.50;0.93;;;;;;;;;;4996774;28;20436;-82
2023/12/21 13:24:41;;;;;;;3.33;0.63;;;;;;;;;;5014583;28;20550;-81
2023/12/21 13:27:07;;;;;;;3.27;0.67;;;;;;;;;;5014513;28;20868;-82
2023/12/21 13:29:34;;;;;;;10.67;1.17;;;;;;;;;;5014369;28;20421;-82
2023/12/21 13:32:01;;;;;;;3.70;0.40;;;;;;;;;;5014389;28;20432;-82
2023/12/21 13:34:29;;;;;;;6.50;0.30;;;;;;;;;;5013947;28;20469;-81
2023/12/21 13:36:56;;;;;;;5.57;0.67;;;;;;;;;;5014358;28;20494;-82
2023/12/21 13:39:23;;;;;;;4.53;0.30;;;;;;;;;;5014191;28;20501;-81
2023/12/21 13:41:50;;;;;;;3.53;0.40;;;;;;;;;;5014055;28;20416;-82
2023/12/21 13:44:17;;;;;;;8.50;0.70;;;;;;;;;;5003215;28;20423;-83
2023/12/21 13:46:43;;;;;;;3.33;0.43;;;;;;;;;;5015614;28;20436;-83
2023/12/21 13:49:09;;;;;;;2.73;1.00;;;;;;;;;;4996894;28;20848;-83
2023/12/21 13:51:35;;;;;;;5.80;0.50;;;;;;;;;;5014753;28;20479;-81
2023/12/21 13:54:02;;;;;;;8.37;1.10;;;;;;;;;;5014192;28;20970;-83
2023/12/21 13:56:28;;;;;;;10.23;1.20;;;;;;;;;;5013873;28;20931;-85
2023/12/21 13:58:54;;;;;;;7.07;0.97;;;;;;;;;;5015651;28;20448;-83
2023/12/21 14:01:22;;;;;;;8.57;1.37;;;;;;;;;;5014992;28;20564;-83
2023/12/21 14:03:51;;;;;;;13.67;1.47;;;;;;;;;;5014901;28;20906;-83
2023/12/21 14:06:18;;;;;;;13.13;2.60;;;;;;;;;;5014784;28;20543;-83
2023/12/21 14:08:44;;;;;;;11.30;1.67;;;;;;;;;;5015090;28;20480;-83
2023/12/21 14:11:10;;;;;;;8.63;1.50;;;;;;;;;;5015029;28;20762;-83
2023/12/21 14:13:36;;;;;;;11.43;3.13;;;;;;;;;;5015290;28;20421;-86
2023/12/21 14:16:02;;;;;;;12.77;1.23;;;;;;;;;;4997842;28;20417;-87
2023/12/21 14:18:28;;;;;;;15.17;2.23;;;;;;;;;;5014891;28;20479;-82
2023/12/21 14:20:54;;;;;;;13.27;1.67;;;;;;;;;;4996002;28;20411;-81
2023/12/21 14:23:21;;;;;;;10.73;2.33;;;;;;;;;;5013882;28;20435;-83
2023/12/21 14:25:47;;;;;;;13.40;3.03;;;;;;;;;;5013658;28;20496;-82
2023/12/21 14:28:15;;;;;;;13.83;1.57;;;;;;;;;;5012976;28;21000;-82
2023/12/21 14:30:40;;;;;;;12.13;2.60;;;;;;;;;;5014219;28;20471;-80
2023/12/21 14:33:06;;;;;;;16.10;2.90;;;;;;;;;;4996883;28;20432;-82
2023/12/21 14:35:32;;;;;;;15.20;2.43;;;;;;;;;;5013272;28;20515;-81